Terminal Aerodrome Forecast
Issued by NWS

Home | Current Version | Previous Version | Text Only | Print | Product List | Glossary On
Versions: 1 2 3 4 5 6 7 8 9 10 11 12 13 14 15 16 17 18 19 20 21 22 23 24 25 26
000
FTUS43 KGRB 031137
TAFMTW
TAF
KMTW 031137Z 0312/0412 VRB03KT P6SM VCSH SCT003 BKN015
      TEMPO 0312/0315 5SM BR BKN003
     FM031500 15005KT 5SM BR VCSH BKN020
     FM031800 12006KT P6SM VCSH SCT020 BKN040
     FM032200 05004KT P6SM SCT040 SCT100
     FM040600 VRB02KT 3SM BR SCT004
      TEMPO 0408/0412 1SM BR BKN004=

USA.gov is the U.S. government's official web portal to all federal, state and local government web resources and services.